createdAt,value
2017-12-09T00:01:23.505Z,96494.89
2017-12-09T00:03:51.178Z,96491.97
2017-12-09T00:06:21.810Z,96491.80
2017-12-09T00:08:49.490Z,96495.50
2017-12-09T00:11:19.925Z,96500.64
2017-12-09T00:13:47.660Z,96489.79
2017-12-09T00:16:17.074Z,96496.14
2017-12-09T00:18:44.788Z,96500.75
2017-12-09T00:21:14.294Z,96494.60
2017-12-09T00:23:42.091Z,96497.44
2017-12-09T00:26:09.902Z,96502.44
2017-12-09T00:28:37.693Z,96513.47
2017-12-09T00:31:06.076Z,96502.39
2017-12-09T00:33:33.746Z,96501.18
2017-12-09T00:36:03.256Z,96507.81
2017-12-09T00:38:30.944Z,96498.69
2017-12-09T00:40:58.794Z,96497.39
2017-12-09T00:43:26.454Z,96486.00
2017-12-09T00:45:54.858Z,96487.91
2017-12-09T00:48:22.540Z,96493.98
2017-12-09T00:50:50.179Z,96499.17
2017-12-09T00:53:19.612Z,96503.39
2017-12-09T00:55:48.052Z,96504.59
2017-12-09T00:58:15.785Z,96502.42
2017-12-09T01:00:43.416Z,96506.44
2017-12-09T01:03:12.881Z,96500.04
2017-12-09T01:05:42.328Z,96502.83
2017-12-09T01:08:10.075Z,96502.33
2017-12-09T01:10:37.742Z,96505.70
2017-12-09T01:13:08.313Z,96513.13
2017-12-09T01:15:49.748Z,96517.58
2017-12-09T01:18:29.338Z,96516.77
2017-12-09T01:20:58.732Z,96521.77
2017-12-09T01:23:26.458Z,96520.62
2017-12-09T01:25:54.128Z,96520.19
2017-12-09T01:28:21.748Z,96525.13
2017-12-09T01:30:49.400Z,96530.55
2017-12-09T01:33:18.675Z,96518.94
2017-12-09T01:35:46.387Z,96527.73
2017-12-09T01:38:15.871Z,96526.95
2017-12-09T01:40:43.661Z,96518.16
2017-12-09T01:43:11.302Z,96521.91
2017-12-09T01:45:38.930Z,96526.91
2017-12-09T01:48:06.798Z,96520.08
2017-12-09T01:50:36.060Z,96521.86
2017-12-09T01:53:03.780Z,96525.23
2017-12-09T01:55:31.402Z,96533.09
2017-12-09T01:57:59.068Z,96531.75
2017-12-09T02:00:26.909Z,96533.81
2017-12-09T02:02:55.318Z,96538.03
2017-12-09T02:05:25.476Z,96547.58
2017-12-09T02:07:53.129Z,96548.73
2017-12-09T02:10:20.901Z,96547.53
2017-12-09T02:12:48.940Z,96543.30
2017-12-09T02:15:19.400Z,96548.28
2017-12-09T02:17:47.058Z,96542.43
2017-12-09T02:20:16.750Z,96548.30
2017-12-09T02:22:44.448Z,96557.73
2017-12-09T02:25:12.246Z,96557.68
2017-12-09T02:27:39.881Z,96557.40
2017-12-09T02:30:07.555Z,96551.59
2017-12-09T02:32:35.412Z,96554.81
2017-12-09T02:35:03.069Z,96561.16
2017-12-09T02:37:32.331Z,96556.06
2017-12-09T02:40:00.249Z,96555.13
2017-12-09T02:42:27.886Z,96555.55
2017-12-09T02:44:55.853Z,96557.79
2017-12-09T02:47:23.526Z,96560.66
2017-12-09T02:49:51.158Z,96549.75
2017-12-09T02:52:18.854Z,96569.54
2017-12-09T02:54:48.232Z,96562.77
2017-12-09T02:57:17.015Z,96559.84
2017-12-09T02:59:44.806Z,96571.94
2017-12-09T03:02:13.329Z,96567.75
2017-12-09T03:04:41.064Z,96567.45
2017-12-09T03:07:10.328Z,96564.71
2017-12-09T03:09:39.641Z,96566.79
2017-12-09T03:12:07.368Z,96567.64
2017-12-09T03:14:34.991Z,96565.54
2017-12-09T03:17:02.654Z,96569.21
2017-12-09T03:19:31.108Z,96566.66
2017-12-09T03:22:00.776Z,96570.41
2017-12-09T03:24:28.497Z,96570.91
2017-12-09T03:26:58.796Z,96565.30
2017-12-09T03:29:26.562Z,96573.88
2017-12-09T03:31:56.230Z,96577.88
2017-12-09T03:34:23.934Z,96580.74
2017-12-09T03:36:51.654Z,96578.14
2017-12-09T03:39:19.459Z,96582.74
2017-12-09T03:41:47.162Z,96582.64
2017-12-09T03:44:14.851Z,96578.03
2017-12-09T03:46:42.546Z,96573.38
2017-12-09T03:49:10.230Z,96562.09
2017-12-09T03:51:41.394Z,96572.55
2017-12-09T03:54:09.079Z,96575.79
2017-12-09T03:56:37.966Z,96571.62
2017-12-09T03:59:06.415Z,96566.21
2017-12-09T04:01:35.980Z,96559.04
2017-12-09T04:04:06.541Z,96556.86
2017-12-09T04:06:34.526Z,96561.35
2017-12-09T04:09:03.891Z,96565.23
2017-12-09T04:11:33.407Z,96560.55
2017-12-09T04:14:02.673Z,96563.63
2017-12-09T04:16:32.086Z,96576.31
2017-12-09T04:19:02.382Z,96578.68
2017-12-09T04:21:30.866Z,96581.27
2017-12-09T04:23:59.360Z,96585.07
2017-12-09T04:26:29.735Z,96588.70
2017-12-09T04:28:58.251Z,96585.84
2017-12-09T04:31:25.924Z,96601.16
2017-12-09T04:33:53.591Z,96601.97
2017-12-09T04:36:22.933Z,96599.05
2017-12-09T04:38:50.673Z,96601.30
2017-12-09T04:41:18.338Z,96607.16
2017-12-09T04:43:48.762Z,96611.28
2017-12-09T04:46:18.304Z,96607.47
2017-12-09T04:48:47.161Z,96601.39
2017-12-09T04:51:17.436Z,96615.02
2017-12-09T04:53:45.867Z,96617.89
2017-12-09T04:56:14.244Z,96622.82
2017-12-09T04:58:42.431Z,96625.81
2017-12-09T05:01:10.193Z,96618.91
2017-12-09T05:03:37.860Z,96615.84
2017-12-09T05:06:08.894Z,96613.80
2017-12-09T05:08:36.572Z,96614.22
2017-12-09T05:11:05.045Z,96603.19
2017-12-09T05:13:35.763Z,96593.43
2017-12-09T05:16:04.237Z,96595.86
2017-12-09T05:18:33.811Z,96595.36
2017-12-09T05:21:01.512Z,96598.22
2017-12-09T05:23:30.883Z,96608.12
2017-12-09T05:26:00.226Z,96598.53
2017-12-09T05:28:28.087Z,96597.98
2017-12-09T05:31:00.507Z,96599.16
2017-12-09T05:33:29.972Z,96592.25
2017-12-09T05:35:57.979Z,96590.59
2017-12-09T05:38:25.635Z,96591.02
2017-12-09T05:40:53.257Z,96593.58
2017-12-09T05:43:20.885Z,96596.73
2017-12-09T05:45:48.561Z,96593.14
2017-12-09T05:48:16.252Z,96597.30
2017-12-09T05:50:43.890Z,96602.61
2017-12-09T05:53:11.757Z,96600.53
2017-12-09T05:55:45.176Z,96605.59
2017-12-09T05:58:12.893Z,96620.66
2017-12-09T06:00:41.299Z,96621.47
2017-12-09T06:03:08.985Z,96627.31
2017-12-09T06:05:36.729Z,96623.77
2017-12-09T06:08:06.358Z,96634.17
2017-12-09T06:10:35.659Z,96637.78
2017-12-09T06:13:03.346Z,96636.28
2017-12-09T06:15:30.997Z,96633.80
2017-12-09T06:18:00.512Z,96637.33
2017-12-09T06:20:29.899Z,96645.64
2017-12-09T06:22:58.357Z,96645.55
2017-12-09T06:25:26.003Z,96643.83
2017-12-09T06:27:53.637Z,96641.34
2017-12-09T06:30:21.389Z,96644.83
2017-12-09T06:32:49.002Z,96645.23
2017-12-09T06:35:17.375Z,96659.27
2017-12-09T06:37:45.177Z,96659.27
2017-12-09T06:40:12.878Z,96648.81
2017-12-09T06:42:43.255Z,96652.71
2017-12-09T06:45:12.819Z,96642.27
2017-12-09T06:47:40.642Z,96643.56
2017-12-09T06:50:09.118Z,96649.97
2017-12-09T06:52:39.646Z,96645.63
2017-12-09T06:55:08.071Z,96653.61
2017-12-09T06:57:35.739Z,96656.65
2017-12-09T07:00:04.134Z,96667.74
2017-12-09T07:02:32.024Z,96674.09
2017-12-09T07:05:00.437Z,96679.20
2017-12-09T07:07:30.796Z,96686.49
2017-12-09T07:09:58.548Z,96684.25
2017-12-09T07:12:28.064Z,96683.48
2017-12-09T07:14:55.816Z,96694.50
2017-12-09T07:17:26.053Z,96684.30
2017-12-09T07:19:55.447Z,96688.95
2017-12-09T07:22:26.042Z,96690.01
2017-12-09T07:24:56.082Z,96692.77
2017-12-09T07:27:25.866Z,96705.28
2017-12-09T07:29:53.578Z,96707.39
2017-12-09T07:32:22.050Z,96725.38
2017-12-09T07:34:49.990Z,96724.99
2017-12-09T07:37:19.366Z,96734.61
2017-12-09T07:39:49.728Z,96739.77
2017-12-09T07:42:17.465Z,96737.91
2017-12-09T07:44:49.648Z,96741.70
2017-12-09T07:47:17.361Z,96741.77
2017-12-09T07:49:45.166Z,96739.91
2017-12-09T07:52:12.843Z,96740.41
2017-12-09T07:54:41.467Z,96733.48
2017-12-09T07:57:09.184Z,96725.45
2017-12-09T07:59:37.190Z,96728.73
2017-12-09T08:02:04.974Z,96736.20
2017-12-09T08:04:33.462Z,96726.83
2017-12-09T08:07:02.912Z,96734.73
2017-12-09T08:09:30.647Z,96737.20
2017-12-09T08:11:59.344Z,96734.72
2017-12-09T08:14:27.010Z,96749.16
2017-12-09T08:16:57.566Z,96739.07
2017-12-09T08:19:25.299Z,96744.00
2017-12-09T08:21:52.998Z,96734.25
2017-12-09T08:24:20.638Z,96745.83
2017-12-09T08:26:48.603Z,96750.25
2017-12-09T08:29:17.902Z,96747.45
2017-12-09T08:31:45.671Z,96756.80
2017-12-09T08:34:13.408Z,96756.28
2017-12-09T08:36:41.058Z,96759.47
2017-12-09T08:39:09.574Z,96758.72
2017-12-09T08:41:37.985Z,96766.56
2017-12-09T08:44:07.592Z,96776.21
2017-12-09T08:46:35.482Z,96784.63
2017-12-09T08:49:05.839Z,96784.79
2017-12-09T08:51:33.512Z,96790.30
2017-12-09T08:54:01.955Z,96798.52
2017-12-09T08:56:29.903Z,96810.98
2017-12-09T08:58:57.588Z,96813.09
2017-12-09T09:01:26.137Z,96817.79
2017-12-09T09:03:53.841Z,96816.16
2017-12-09T09:06:21.560Z,96825.63
2017-12-09T09:08:49.339Z,96831.19
2017-12-09T09:11:17.020Z,96840.41
2017-12-09T09:13:47.496Z,96831.69
2017-12-09T09:16:16.274Z,96822.52
2017-12-09T09:18:44.028Z,96835.61
2017-12-09T09:21:11.736Z,96836.12
2017-12-09T09:23:39.433Z,96846.08
2017-12-09T09:26:07.911Z,96833.62
2017-12-09T09:28:36.295Z,96841.03
2017-12-09T09:31:03.983Z,96842.33
2017-12-09T09:33:34.285Z,96846.45
2017-12-09T09:36:05.238Z,96846.88
2017-12-09T09:38:32.952Z,96835.98
2017-12-09T09:41:00.752Z,96836.12
2017-12-09T09:43:33.422Z,96828.31
2017-12-09T09:46:01.107Z,96827.66
2017-12-09T09:48:28.812Z,96818.87
2017-12-09T09:50:58.186Z,96817.70
2017-12-09T09:53:27.636Z,96823.92
2017-12-09T09:55:57.147Z,96833.41
2017-12-09T09:58:24.865Z,96828.11
2017-12-09T10:00:55.058Z,96823.84
2017-12-09T10:03:23.576Z,96832.28
2017-12-09T10:05:51.314Z,96829.41
2017-12-09T10:08:19.715Z,96838.96
2017-12-09T10:10:47.583Z,96837.83
2017-12-09T10:13:17.114Z,96828.50
2017-12-09T10:15:44.961Z,96826.75
2017-12-09T10:18:12.823Z,96825.95
2017-12-09T10:20:42.293Z,96821.28
2017-12-09T10:23:10.350Z,96816.78
2017-12-09T10:25:40.580Z,96818.27
2017-12-09T10:28:08.305Z,96814.16
2017-12-09T10:30:35.952Z,96813.35
2017-12-09T10:33:03.625Z,96813.98
2017-12-09T10:35:31.313Z,96809.86
2017-12-09T10:38:00.711Z,96811.42
2017-12-09T10:40:30.178Z,96808.00
2017-12-09T10:43:00.540Z,96819.53
2017-12-09T10:45:28.244Z,96824.76
2017-12-09T10:47:56.199Z,96825.03
2017-12-09T10:50:24.970Z,96829.87
2017-12-09T10:52:54.314Z,96824.95
2017-12-09T10:55:22.684Z,96831.37
2017-12-09T10:57:52.127Z,96835.87
2017-12-09T11:00:19.943Z,96836.25
2017-12-09T11:02:48.580Z,96824.78
2017-12-09T11:05:16.336Z,96833.30
2017-12-09T11:07:44.435Z,96828.19
2017-12-09T11:10:12.705Z,96824.08
2017-12-09T11:12:40.577Z,96818.86
2017-12-09T11:15:08.330Z,96822.63
2017-12-09T11:17:36.794Z,96822.81
2017-12-09T11:20:05.215Z,96809.20
2017-12-09T11:22:35.808Z,96803.34
2017-12-09T11:25:03.487Z,96801.53
2017-12-09T11:27:31.246Z,96802.27
2017-12-09T11:30:00.640Z,96804.89
2017-12-09T11:32:28.483Z,96803.12
2017-12-09T11:34:56.217Z,96808.49
2017-12-09T11:37:25.751Z,96807.64
2017-12-09T11:39:55.219Z,96806.77
2017-12-09T11:42:24.052Z,96807.13
2017-12-09T11:44:51.763Z,96809.06
2017-12-09T11:47:19.435Z,96811.34
2017-12-09T11:49:49.641Z,96825.89
2017-12-09T11:52:17.377Z,96828.25
2017-12-09T11:54:48.977Z,96827.45
2017-12-09T11:57:16.693Z,96836.00
2017-12-09T11:59:44.387Z,96833.38
2017-12-09T12:02:12.243Z,96829.70
2017-12-09T12:04:41.754Z,96828.31
2017-12-09T12:07:11.103Z,96831.95
2017-12-09T12:09:39.927Z,96839.56
2017-12-09T12:12:09.418Z,96842.30
2017-12-09T12:14:37.208Z,96836.06
2017-12-09T12:17:07.048Z,96839.16
2017-12-09T12:19:35.931Z,96836.19
2017-12-09T12:22:04.416Z,96832.73
2017-12-09T12:36:15.333Z,96823.77
2017-12-09T12:38:45.892Z,96822.97
2017-12-09T12:41:15.266Z,96830.11
2017-12-09T12:43:44.694Z,96822.75
2017-12-09T12:46:12.411Z,96825.87
2017-12-09T12:48:41.771Z,96830.02
2017-12-09T12:51:10.566Z,96821.78
2017-12-09T12:53:40.598Z,96831.06
2017-12-09T12:56:10.157Z,96813.48
2017-12-09T12:58:37.876Z,96814.72
2017-12-09T13:01:06.656Z,96815.98
2017-12-09T13:03:34.354Z,96816.91
2017-12-09T13:30:09.869Z,96800.43
2017-12-09T13:32:38.304Z,96798.81
2017-12-09T13:35:07.587Z,96789.60
2017-12-09T13:37:37.865Z,96791.39
2017-12-09T13:40:06.311Z,96791.83
2017-12-09T13:42:36.109Z,96789.32
2017-12-09T13:45:05.589Z,96789.25
2017-12-09T13:47:33.431Z,96780.69
2017-12-09T13:50:03.219Z,96786.86
2017-12-09T13:52:30.894Z,96780.45
2017-12-09T13:55:00.195Z,96782.70
2017-12-09T13:57:30.310Z,96782.47
2017-12-09T14:00:01.559Z,96792.94
2017-12-09T14:02:31.125Z,96790.20
2017-12-09T14:05:01.698Z,96792.69
2017-12-09T14:07:33.015Z,96788.84
2017-12-09T14:10:00.815Z,96788.34
2017-12-09T14:12:30.126Z,96780.80
2017-12-09T14:14:59.722Z,96784.47
2017-12-09T14:17:29.068Z,96791.97
2017-12-09T14:19:59.452Z,96790.09
2017-12-09T14:22:29.821Z,96790.04
2017-12-09T14:24:57.578Z,96793.66
2017-12-09T14:27:27.099Z,96796.09
2017-12-09T14:29:57.416Z,96792.67
2017-12-09T14:32:29.012Z,96788.59
2017-12-09T14:34:56.808Z,96793.10
2017-12-09T14:37:24.578Z,96799.66
2017-12-09T14:39:52.859Z,96807.44
2017-12-09T14:42:22.292Z,96794.27
2017-12-09T14:44:51.234Z,96794.22
2017-12-09T14:47:21.773Z,96795.46
2017-12-09T14:49:52.189Z,96800.83
2017-12-09T14:52:21.036Z,96791.61
2017-12-09T14:54:49.828Z,96790.55
2017-12-09T14:57:19.632Z,96792.41
2017-12-09T14:59:48.933Z,96801.13
2017-12-09T15:02:16.840Z,96791.42
2017-12-09T15:04:44.711Z,96798.70
2017-12-09T15:07:12.627Z,96792.59
2017-12-09T15:09:42.160Z,96807.00
2017-12-09T15:12:11.635Z,96800.56
2017-12-09T15:14:39.345Z,96806.44
2017-12-09T15:17:07.490Z,96800.50
2017-12-09T15:19:37.329Z,96799.83
2017-12-09T15:22:05.975Z,96805.47
2017-12-09T15:24:34.197Z,96799.55
2017-12-09T15:27:02.027Z,96804.47
2017-12-09T15:29:31.662Z,96802.23
2017-12-09T15:31:59.562Z,96808.70
2017-12-09T15:34:30.060Z,96806.08
2017-12-09T15:36:58.038Z,96798.53
2017-12-09T15:39:28.365Z,96812.55
2017-12-09T15:41:56.040Z,96814.98
2017-12-09T15:44:25.667Z,96811.54
2017-12-09T15:46:57.450Z,96807.56
2017-12-09T15:49:25.473Z,96810.70
2017-12-09T15:51:54.869Z,96819.68
2017-12-09T15:54:22.952Z,96822.55
2017-12-09T15:56:52.247Z,96815.25
2017-12-09T15:59:22.931Z,96820.23
2017-12-09T16:01:52.545Z,96819.73
2017-12-09T16:04:21.894Z,96825.43
2017-12-09T16:06:50.542Z,96816.89
2017-12-09T16:09:18.432Z,96820.41
2017-12-09T16:11:50.266Z,96832.76
2017-12-09T16:14:19.760Z,96833.91
2017-12-09T16:16:49.400Z,96843.06
2017-12-09T16:19:18.958Z,96843.82
2017-12-09T16:21:47.530Z,96849.47
2017-12-09T16:24:16.219Z,96854.30
2017-12-09T16:26:45.013Z,96837.08
2017-12-09T16:29:15.537Z,96841.58
2017-12-09T16:31:43.233Z,96846.42
2017-12-09T16:34:13.576Z,96849.34
2017-12-09T16:36:41.390Z,96852.16
2017-12-09T16:39:10.756Z,96848.36
2017-12-09T16:41:41.133Z,96850.32
2017-12-09T16:44:09.717Z,96859.05
2017-12-09T16:46:39.089Z,96845.92
2017-12-09T16:49:07.209Z,96850.97
2017-12-09T16:51:34.979Z,96851.91
2017-12-09T16:54:04.366Z,96849.05
2017-12-09T16:56:32.859Z,96852.85
2017-12-09T16:59:01.354Z,96846.22
2017-12-09T17:01:29.278Z,96850.71
2017-12-09T17:03:57.722Z,96855.81
2017-12-09T17:06:25.433Z,96857.01
2017-12-09T17:08:53.947Z,96850.35
2017-12-09T17:11:23.444Z,96850.28
2017-12-09T17:13:53.142Z,96851.88
2017-12-09T17:16:21.169Z,96854.19
2017-12-09T17:18:50.694Z,96850.38
2017-12-09T17:21:18.773Z,96857.91
2017-12-09T17:23:48.157Z,96851.20
2017-12-09T17:26:16.115Z,96857.11
2017-12-09T17:28:43.784Z,96858.56
2017-12-09T17:31:11.453Z,96850.78
2017-12-09T17:33:40.124Z,96857.08
2017-12-09T17:36:10.577Z,96851.22
2017-12-09T17:38:38.323Z,96857.39
2017-12-09T17:41:05.995Z,96853.78
2017-12-09T17:43:33.852Z,96858.41
2017-12-09T17:46:01.622Z,96860.59
2017-12-09T17:48:29.316Z,96861.07
2017-12-09T17:50:58.880Z,96858.17
2017-12-09T17:53:26.758Z,96857.41
2017-12-09T17:55:56.489Z,96858.22
2017-12-09T17:58:26.773Z,96868.84
2017-12-09T18:00:56.851Z,96867.64
2017-12-09T18:03:26.874Z,96863.11
2017-12-09T18:05:54.925Z,96862.35
2017-12-09T18:08:25.381Z,96859.50
2017-12-09T18:10:53.115Z,96859.58
2017-12-09T18:13:22.762Z,96857.88
2017-12-09T18:15:50.621Z,96859.64
2017-12-09T18:18:18.502Z,96854.34
2017-12-09T18:20:46.429Z,96855.39
2017-12-09T18:23:14.160Z,96856.76
2017-12-09T18:25:44.479Z,96854.59
2017-12-09T18:28:14.349Z,96852.16
2017-12-09T18:30:44.963Z,96858.02
2017-12-09T18:33:12.766Z,96843.01
2017-12-09T18:35:41.546Z,96849.28
2017-12-09T18:38:11.160Z,96849.73
2017-12-09T18:40:39.020Z,96846.07
2017-12-09T18:43:07.629Z,96846.87
2017-12-09T18:45:35.507Z,96849.06
2017-12-09T18:48:03.964Z,96851.92
2017-12-09T18:50:32.553Z,96844.90
2017-12-09T18:53:01.137Z,96844.45
2017-12-09T18:55:30.482Z,96837.78
2017-12-09T18:57:58.212Z,96841.52
2017-12-09T19:00:26.082Z,96840.35
2017-12-09T19:02:55.656Z,96835.42
2017-12-09T19:05:23.636Z,96831.63
2017-12-09T19:07:52.165Z,96832.06
2017-12-09T19:10:19.925Z,96832.02
2017-12-09T19:12:47.681Z,96835.34
2017-12-09T19:15:15.553Z,96835.01
2017-12-09T19:17:45.928Z,96841.67
2017-12-09T19:20:13.667Z,96844.66
2017-12-09T19:22:41.488Z,96845.96
2017-12-09T19:25:14.066Z,96848.47
2017-12-09T19:27:42.586Z,96846.03
2017-12-09T19:30:10.524Z,96840.48
2017-12-09T19:32:39.024Z,96847.33
2017-12-09T19:35:07.525Z,96854.25
2017-12-09T19:37:35.253Z,96849.95
2017-12-09T19:40:04.500Z,96850.37
2017-12-09T19:42:32.210Z,96843.34
2017-12-09T19:45:00.005Z,96847.59
2017-12-09T19:47:27.883Z,96847.66
2017-12-09T19:49:55.773Z,96849.82
2017-12-09T19:52:23.723Z,96849.82
2017-12-09T19:54:52.868Z,96845.23
2017-12-09T19:57:20.860Z,96837.70
2017-12-09T19:59:48.847Z,96849.72
2017-12-09T20:02:16.853Z,96847.71
2017-12-09T20:04:46.532Z,96849.41
2017-12-09T20:07:14.701Z,96845.15
2017-12-09T20:09:44.189Z,96841.41
2017-12-09T20:12:14.084Z,96838.20
2017-12-09T20:14:41.988Z,96838.99
2017-12-09T20:17:11.730Z,96839.42
2017-12-09T20:19:41.301Z,96840.62
2017-12-09T20:22:09.239Z,96842.59
2017-12-09T20:24:38.036Z,96848.81
2017-12-09T20:27:06.097Z,96845.48
2017-12-09T20:29:33.973Z,96842.98
2017-12-09T20:32:05.344Z,96847.97
2017-12-09T20:34:36.662Z,96839.61
2017-12-09T21:03:08.641Z,96822.69
2017-12-09T21:05:36.451Z,96815.14
2017-12-09T21:08:08.301Z,96809.38
2017-12-09T21:10:36.423Z,96807.30
2017-12-09T21:13:04.471Z,96803.48
2017-12-09T21:15:34.440Z,96810.09
2017-12-09T21:18:03.680Z,96798.84
2017-12-09T21:20:34.172Z,96802.06
2017-12-09T21:23:02.809Z,96808.36
2017-12-09T21:25:31.210Z,96807.53
2017-12-09T21:27:59.153Z,96801.64
2017-12-09T21:30:29.992Z,96802.12
2017-12-09T21:32:57.873Z,96806.23
2017-12-09T21:35:27.596Z,96800.80
2017-12-09T21:37:55.456Z,96804.03
2017-12-09T21:40:25.018Z,96804.47
2017-12-09T21:42:54.622Z,96805.73
2017-12-09T21:45:22.440Z,96803.23
2017-12-09T21:47:50.251Z,96802.05
2017-12-09T21:50:19.798Z,96796.56
2017-12-09T21:52:47.562Z,96789.78
2017-12-09T21:55:17.125Z,96797.69
2017-12-09T21:57:46.766Z,96793.52
2017-12-09T22:00:24.589Z,96792.27
2017-12-09T22:02:55.278Z,96792.70
2017-12-09T22:05:23.263Z,96791.72
2017-12-09T22:07:53.141Z,96790.91
2017-12-09T22:10:22.850Z,96794.55
2017-12-09T22:12:51.901Z,96789.59
2017-12-09T22:15:21.662Z,96788.77
2017-12-09T22:17:51.613Z,96788.62
2017-12-09T22:20:19.283Z,96782.33
2017-12-09T22:22:47.045Z,96777.68
2017-12-09T22:25:14.760Z,96776.87
2017-12-09T22:27:42.425Z,96776.80
2017-12-09T22:30:10.137Z,96766.39
2017-12-09T22:32:39.704Z,96765.03
2017-12-09T22:35:07.436Z,96764.97
2017-12-09T22:37:35.113Z,96755.75
2017-12-09T22:40:02.984Z,96754.86
2017-12-09T22:42:32.514Z,96759.41
2017-12-09T22:45:02.006Z,96753.50
2017-12-09T22:47:29.931Z,96753.78
2017-12-09T22:49:59.232Z,96755.95
2017-12-09T22:52:26.966Z,96750.11
2017-12-09T22:54:56.394Z,96745.84
2017-12-09T22:57:24.146Z,96747.85
2017-12-09T22:59:54.256Z,96747.05
2017-12-09T23:02:21.938Z,96741.05
2017-12-09T23:04:49.596Z,96738.13
2017-12-09T23:07:19.876Z,96726.05
2017-12-09T23:09:48.401Z,96728.83
2017-12-09T23:12:16.889Z,96721.74
2017-12-09T23:14:44.794Z,96718.68
2017-12-09T23:17:12.878Z,96714.46
2017-12-09T23:19:41.289Z,96705.66
2017-12-09T23:22:13.386Z,96702.25
2017-12-09T23:24:41.344Z,96698.83
2017-12-09T23:27:09.120Z,96693.42
2017-12-09T23:29:36.880Z,96685.87
2017-12-09T23:32:06.196Z,96683.33
2017-12-09T23:34:33.940Z,96678.21
2017-12-09T23:37:03.536Z,96681.38
2017-12-09T23:39:33.804Z,96677.45
2017-12-09T23:42:02.303Z,96675.94
2017-12-09T23:44:30.101Z,96678.10
2017-12-09T23:46:57.805Z,96674.31
2017-12-09T23:49:25.534Z,96676.06
2017-12-09T23:51:54.837Z,96673.45
2017-12-09T23:54:25.107Z,96674.50
2017-12-09T23:56:54.644Z,96688.89
2017-12-09T23:59:23.092Z,96663.14
